Kenneth Carl — WDF8246 — position and weather

sailwx.info

Track history (hours):
 
Tides and Currents Weather Stations Pressure Air Temp Water Temp Dewpoint Dewpoint Depression Visibility Wind Speed Wind Dir Waves Ship Positions

Kenneth Carl

Owner: So. Cal. Ship Services, Inc., San Pedro, CA. More information available from US FCC via Universal Licensing System and Coast Guard Vessel Documentation Center.

Last reported at 2014-Oct-24 18:33 UTC. Time now 2014-Oct-24 18:52 UTC.
Position N 33°35' W 118°08'.

Length 31 m; draft 3 m.

Type: Ship. MMSI: 367492920.

Date/timePositionNaut miles runAvg speedWind from/ knotsBaromVisibWave heightAir tempDewpointWater temp
2014-Oct-24 18:33N 33°35' W 118°08'0 0.0
2014-Oct-24 17:33N 33°35' W 118°08'0 0.0
2014-Oct-24 16:33N 33°35' W 118°08'0 0.3
2014-Oct-24 15:33N 33°35' W 118°08'1010.1
2014-Oct-24 14:33N 33°43' W 118°16'1 1.3
2014-Oct-24 13:33N 33°44' W 118°16'0 0.0
2014-Oct-24 12:33N 33°44' W 118°16'0 0.0
2014-Oct-24 11:33N 33°44' W 118°16'0 0.0
2014-Oct-24 10:16N 33°44' W 118°16'0 0.0
2014-Oct-24 09:33N 33°44' W 118°16'0 0.0
2014-Oct-24 08:33N 33°44' W 118°16'8 8.0
2014-Oct-24 07:33N 33°38' W 118°11'4 3.8
2014-Oct-24 06:33N 33°35' W 118°08'0 0.2
2014-Oct-24 05:33N 33°35' W 118°08'1 1.2
2014-Oct-24 04:33N 33°34' W 118°07'8 8.5
2014-Oct-24 03:33N 33°41' W 118°13'4 4.3
2014-Oct-24 02:33N 33°44' W 118°16'0 0.0
2014-Oct-24 01:32N 33°44' W 118°16'0 0.0
2014-Oct-24 00:33N 33°44' W 118°16'0 0.0
2014-Oct-23 23:33N 33°44' W 118°16'6 5.8
2014-Oct-23 22:33N 33°40' W 118°12'6 5.8
2014-Oct-23 21:33N 33°35' W 118°08'0 0.0
2014-Oct-23 20:33N 33°35' W 118°08'0 0.2
2014-Oct-23 19:33N 33°35' W 118°08'2 2.0
2014-Oct-23 18:33N 33°37' W 118°09'10 9.6
2014-Oct-23 17:33N 33°44' W 118°16'0 0.3
2014-Oct-23 16:33N 33°44' W 118°16'0 0.4
2014-Oct-23 15:33N 33°44' W 118°16'0 0.4
2014-Oct-23 14:33N 33°44' W 118°16'0 0.0
2014-Oct-23 13:33N 33°44' W 118°16'0 0.0
2014-Oct-23 12:32N 33°44' W 118°16'0 0.0
2014-Oct-23 11:33N 33°44' W 118°16'0 0.0
2014-Oct-23 10:33N 33°44' W 118°16'4 3.5
2014-Oct-23 09:33N 33°41' W 118°14'8 8.1
2014-Oct-23 08:33N 33°35' W 118°08'0 0.0
2014-Oct-23 07:33N 33°35' W 118°08'0 0.0
2014-Oct-23 06:33N 33°35' W 118°08'0 0.0
2014-Oct-23 05:33N 33°35' W 118°08'0 0.0
2014-Oct-23 04:33N 33°35' W 118°08'1 1.2
2014-Oct-23 03:33N 33°36' W 118°09'10 9.9
2014-Oct-23 02:34N 33°43' W 118°16'1 0.7
2014-Oct-23 01:33N 33°44' W 118°16'6 6.4
2014-Oct-23 00:33N 33°39' W 118°11'6 6.4
2014-Oct-22 23:34N 33°34' W 118°07'1 1.4
2014-Oct-22 22:33N 33°35' W 118°07'1010.5
2014-Oct-22 21:33N 33°43' W 118°16'1 1.1
2014-Oct-22 20:33N 33°44' W 118°16'10 8.6
2014-Oct-22 19:26N 33°36' W 118°09'3 3.6
2014-Oct-22 18:32N 33°34' W 118°07'0 0.0
2014-Oct-22 17:33N 33°34' W 118°07'0 0.0
2014-Oct-22 16:33N 33°34' W 118°07'1 1.3
2014-Oct-22 15:29N 33°35' W 118°08'11 9.2
2014-Oct-22 14:16N 33°44' W 118°16'0 0.4
2014-Oct-22 13:20N 33°44' W 118°16'0 0.0
2014-Oct-22 12:32N 33°44' W 118°16'1 0.7
2014-Oct-22 10:32N 33°43' W 118°15'10 5.1
2014-Oct-22 08:33N 33°35' W 118°08'0 0.0
2014-Oct-22 07:33N 33°35' W 118°08'0 0.1
2014-Oct-22 06:33N 33°35' W 118°08'4 3.8
2014-Oct-22 05:30N 33°38' W 118°11'8 7.8
2014-Oct-22 04:32N 33°44' W 118°16'0 0.0
2014-Oct-22 03:33N 33°44' W 118°16'0 0.0
2014-Oct-22 02:11N 33°44' W 118°16'0 0.0
2014-Oct-22 00:33N 33°44' W 118°16'0 0.0
2014-Oct-21 23:33N 33°44' W 118°16'13 5.2
2014-Oct-21 21:06N 33°34' W 118°07'0 0.0
2014-Oct-21 19:25N 33°34' W 118°07'1 1.2
2014-Oct-21 18:25N 33°35' W 118°08'12 3.6
2014-Oct-21 15:12N 33°44' W 118°16'0 0.6
2014-Oct-21 14:33N 33°44' W 118°16'0 0.0
2014-Oct-21 13:32N 33°44' W 118°16'0 0.1
2014-Oct-21 10:22N 33°44' W 118°16'5 5.5
2014-Oct-21 09:31N 33°40' W 118°13'7 7.2
2014-Oct-21 08:33N 33°35' W 118°08'0 0.0
2014-Oct-21 05:32N 33°35' W 118°08'11 2.9
2014-Oct-21 01:33N 33°44' W 118°16'0 0.0
2014-Oct-20 15:22N 33°44' W 118°16'0 0.0
2014-Oct-20 14:30N 33°44' W 118°16'0 0.0
2014-Oct-20 13:29N 33°44' W 118°16'0 0.0
2014-Oct-20 12:33N 33°44' W 118°16'0 0.0
2014-Oct-20 11:33N 33°44' W 118°16'4 3.8
2014-Oct-20 10:32N 33°41' W 118°13'8 7.5
2014-Oct-20 09:30N 33°35' W 118°08'0 0.0
2014-Oct-20 05:24N 33°35' W 118°08'0 0.1
2014-Oct-20 03:21N 33°35' W 118°08'9 9.9
2014-Oct-20 02:24N 33°42' W 118°15'2 2.7
2014-Oct-20 01:33N 33°44' W 118°16'1 0.9
2014-Oct-20 00:32N 33°43' W 118°16'11 9.2
2014-Oct-19 23:22N 33°35' W 118°08'12 2.3
2014-Oct-19 18:20N 33°44' W 118°16'0 0.0
2014-Oct-19 17:27N 33°44' W 118°16'0 0.0
2014-Oct-19 16:32N 33°44' W 118°16'1 0.1
2014-Oct-19 12:19N 33°43' W 118°16'1 0.8
2014-Oct-19 11:31N 33°44' W 118°16'2 2.1
2014-Oct-19 10:33N 33°42' W 118°15'10 3.1
2014-Oct-19 07:31N 33°35' W 118°08'12 2.9
2014-Oct-19 03:33N 33°44' W 118°16'0 0.0
2014-Oct-19 02:22N 33°44' W 118°16'0 0.0
2014-Oct-19 01:33N 33°44' W 118°16'0 0.0
2014-Oct-19 00:33N 33°44' W 118°16'0 0.0
2014-Oct-18 14:10N 33°44' W 118°16'0 0.0
2014-Oct-18 12:30N 33°44' W 118°16'0 0.0
2014-Oct-18 11:33N 33°44' W 118°16'0 0.0
2014-Oct-18 10:27N 33°44' W 118°16'0 0.0
2014-Oct-18 02:26N 33°44' W 118°16'0 0.0
2014-Oct-18 00:12N 33°44' W 118°16'0 0.0
2014-Oct-17 14:28N 33°44' W 118°16'0 0.0
2014-Oct-17 13:24N 33°44' W 118°16'0 0.0
2014-Oct-17 12:31N 33°44' W 118°16'2 0.4
2014-Oct-17 07:23N 33°42' W 118°15'2 0.4
2014-Oct-17 01:33N 33°44' W 118°16'0 0.1
2014-Oct-16 23:33N 33°44' W 118°16'13 6.3
2014-Oct-16 21:32N 33°34' W 118°07'0 0.0
2014-Oct-16 20:32N 33°34' W 118°07'13 2.0
2014-Oct-16 14:13N 33°44' W 118°16'0 0.5
2014-Oct-16 13:28N 33°44' W 118°16'0 0.0
2014-Oct-16 11:22N 33°44' W 118°16'0 0.0
2014-Oct-16 10:32N 33°44' W 118°16'12 1.8
2014-Oct-16 04:12N 33°35' W 118°08'9 2.4
2014-Oct-16 00:33N 33°42' W 118°14'3 0.3
2014-Oct-15 14:24N 33°44' W 118°16'0 0.2
2014-Oct-15 12:08N 33°44' W 118°16'0 0.0
2014-Oct-15 11:30N 33°44' W 118°16'0 0.0
2014-Oct-15 10:31N 33°44' W 118°16'0 0.0
2014-Oct-15 09:33N 33°44' W 118°16'0 0.0
2014-Oct-15 05:18N 33°44' W 118°16'0 0.0
2014-Oct-15 04:25N 33°44' W 118°16'0 0.0
2014-Oct-15 03:30N 33°44' W 118°16'  
Track history (hours):
 
Tides and Currents Weather Stations Pressure Air Temp Water Temp Dewpoint Dewpoint Depression Visibility Wind Speed Wind Dir Waves Ship Positions

Kenneth Carl

Owner: So. Cal. Ship Services, Inc., San Pedro, CA. More information available from US FCC via Universal Licensing System and Coast Guard Vessel Documentation Center.

Last reported at 2014-Oct-24 18:33 UTC. Time now 2014-Oct-24 18:52 UTC.
Position N 33°35' W 118°08'.

Length 31 m; draft 3 m.

Type: Ship. MMSI: 367492920.

Date/timePositionNaut miles runAvg speedWind from/ knotsBaromVisibWave heightAir tempDewpointWater temp
2014-Oct-24 18:33N 33°35' W 118°08'0 0.0
2014-Oct-24 17:33N 33°35' W 118°08'0 0.0
2014-Oct-24 16:33N 33°35' W 118°08'0 0.3
2014-Oct-24 15:33N 33°35' W 118°08'1010.1
2014-Oct-24 14:33N 33°43' W 118°16'1 1.3
2014-Oct-24 13:33N 33°44' W 118°16'0 0.0
2014-Oct-24 12:33N 33°44' W 118°16'0 0.0
2014-Oct-24 11:33N 33°44' W 118°16'0 0.0
2014-Oct-24 10:16N 33°44' W 118°16'0 0.0
2014-Oct-24 09:33N 33°44' W 118°16'0 0.0
2014-Oct-24 08:33N 33°44' W 118°16'8 8.0
2014-Oct-24 07:33N 33°38' W 118°11'4 3.8
2014-Oct-24 06:33N 33°35' W 118°08'0 0.2
2014-Oct-24 05:33N 33°35' W 118°08'1 1.2
2014-Oct-24 04:33N 33°34' W 118°07'8 8.5
2014-Oct-24 03:33N 33°41' W 118°13'4 4.3
2014-Oct-24 02:33N 33°44' W 118°16'0 0.0
2014-Oct-24 01:32N 33°44' W 118°16'0 0.0
2014-Oct-24 00:33N 33°44' W 118°16'0 0.0
2014-Oct-23 23:33N 33°44' W 118°16'6 5.8
2014-Oct-23 22:33N 33°40' W 118°12'6 5.8
2014-Oct-23 21:33N 33°35' W 118°08'0 0.0
2014-Oct-23 20:33N 33°35' W 118°08'0 0.2
2014-Oct-23 19:33N 33°35' W 118°08'2 2.0
2014-Oct-23 18:33N 33°37' W 118°09'10 9.6
2014-Oct-23 17:33N 33°44' W 118°16'0 0.3
2014-Oct-23 16:33N 33°44' W 118°16'0 0.4
2014-Oct-23 15:33N 33°44' W 118°16'0 0.4
2014-Oct-23 14:33N 33°44' W 118°16'0 0.0
2014-Oct-23 13:33N 33°44' W 118°16'0 0.0
2014-Oct-23 12:32N 33°44' W 118°16'0 0.0
2014-Oct-23 11:33N 33°44' W 118°16'0 0.0
2014-Oct-23 10:33N 33°44' W 118°16'4 3.5
2014-Oct-23 09:33N 33°41' W 118°14'8 8.1
2014-Oct-23 08:33N 33°35' W 118°08'0 0.0
2014-Oct-23 07:33N 33°35' W 118°08'0 0.0
2014-Oct-23 06:33N 33°35' W 118°08'0 0.0
2014-Oct-23 05:33N 33°35' W 118°08'0 0.0
2014-Oct-23 04:33N 33°35' W 118°08'1 1.2
2014-Oct-23 03:33N 33°36' W 118°09'10 9.9
2014-Oct-23 02:34N 33°43' W 118°16'1 0.7
2014-Oct-23 01:33N 33°44' W 118°16'6 6.4
2014-Oct-23 00:33N 33°39' W 118°11'6 6.4
2014-Oct-22 23:34N 33°34' W 118°07'1 1.4
2014-Oct-22 22:33N 33°35' W 118°07'1010.5
2014-Oct-22 21:33N 33°43' W 118°16'1 1.1
2014-Oct-22 20:33N 33°44' W 118°16'10 8.6
2014-Oct-22 19:26N 33°36' W 118°09'3 3.6
2014-Oct-22 18:32N 33°34' W 118°07'0 0.0
2014-Oct-22 17:33N 33°34' W 118°07'0 0.0
2014-Oct-22 16:33N 33°34' W 118°07'1 1.3
2014-Oct-22 15:29N 33°35' W 118°08'11 9.2
2014-Oct-22 14:16N 33°44' W 118°16'0 0.4
2014-Oct-22 13:20N 33°44' W 118°16'0 0.0
2014-Oct-22 12:32N 33°44' W 118°16'1 0.7
2014-Oct-22 10:32N 33°43' W 118°15'10 5.1
2014-Oct-22 08:33N 33°35' W 118°08'0 0.0
2014-Oct-22 07:33N 33°35' W 118°08'0 0.1
2014-Oct-22 06:33N 33°35' W 118°08'4 3.8
2014-Oct-22 05:30N 33°38' W 118°11'8 7.8
2014-Oct-22 04:32N 33°44' W 118°16'0 0.0
2014-Oct-22 03:33N 33°44' W 118°16'0 0.0
2014-Oct-22 02:11N 33°44' W 118°16'0 0.0
2014-Oct-22 00:33N 33°44' W 118°16'0 0.0
2014-Oct-21 23:33N 33°44' W 118°16'13 5.2
2014-Oct-21 21:06N 33°34' W 118°07'0 0.0
2014-Oct-21 19:25N 33°34' W 118°07'1 1.2
2014-Oct-21 18:25N 33°35' W 118°08'12 3.6
2014-Oct-21 15:12N 33°44' W 118°16'0 0.6
2014-Oct-21 14:33N 33°44' W 118°16'0 0.0
2014-Oct-21 13:32N 33°44' W 118°16'0 0.1
2014-Oct-21 10:22N 33°44' W 118°16'5 5.5
2014-Oct-21 09:31N 33°40' W 118°13'7 7.2
2014-Oct-21 08:33N 33°35' W 118°08'0 0.0
2014-Oct-21 05:32N 33°35' W 118°08'11 2.9
2014-Oct-21 01:33N 33°44' W 118°16'0 0.0
2014-Oct-20 15:22N 33°44' W 118°16'0 0.0
2014-Oct-20 14:30N 33°44' W 118°16'0 0.0
2014-Oct-20 13:29N 33°44' W 118°16'0 0.0
2014-Oct-20 12:33N 33°44' W 118°16'0 0.0
2014-Oct-20 11:33N 33°44' W 118°16'4 3.8
2014-Oct-20 10:32N 33°41' W 118°13'8 7.5
2014-Oct-20 09:30N 33°35' W 118°08'0 0.0
2014-Oct-20 05:24N 33°35' W 118°08'0 0.1
2014-Oct-20 03:21N 33°35' W 118°08'9 9.9
2014-Oct-20 02:24N 33°42' W 118°15'2 2.7
2014-Oct-20 01:33N 33°44' W 118°16'1 0.9
2014-Oct-20 00:32N 33°43' W 118°16'11 9.2
2014-Oct-19 23:22N 33°35' W 118°08'12 2.3
2014-Oct-19 18:20N 33°44' W 118°16'0 0.0
2014-Oct-19 17:27N 33°44' W 118°16'0 0.0
2014-Oct-19 16:32N 33°44' W 118°16'1 0.1
2014-Oct-19 12:19N 33°43' W 118°16'1 0.8
2014-Oct-19 11:31N 33°44' W 118°16'2 2.1
2014-Oct-19 10:33N 33°42' W 118°15'10 3.1
2014-Oct-19 07:31N 33°35' W 118°08'12 2.9
2014-Oct-19 03:33N 33°44' W 118°16'0 0.0
2014-Oct-19 02:22N 33°44' W 118°16'0 0.0
2014-Oct-19 01:33N 33°44' W 118°16'0 0.0
2014-Oct-19 00:33N 33°44' W 118°16'0 0.0
2014-Oct-18 14:10N 33°44' W 118°16'0 0.0
2014-Oct-18 12:30N 33°44' W 118°16'0 0.0
2014-Oct-18 11:33N 33°44' W 118°16'0 0.0
2014-Oct-18 10:27N 33°44' W 118°16'0 0.0
2014-Oct-18 02:26N 33°44' W 118°16'0 0.0
2014-Oct-18 00:12N 33°44' W 118°16'0 0.0
2014-Oct-17 14:28N 33°44' W 118°16'0 0.0
2014-Oct-17 13:24N 33°44' W 118°16'0 0.0
2014-Oct-17 12:31N 33°44' W 118°16'2 0.4
2014-Oct-17 07:23N 33°42' W 118°15'2 0.4
2014-Oct-17 01:33N 33°44' W 118°16'0 0.1
2014-Oct-16 23:33N 33°44' W 118°16'13 6.3
2014-Oct-16 21:32N 33°34' W 118°07'0 0.0
2014-Oct-16 20:32N 33°34' W 118°07'13 2.0
2014-Oct-16 14:13N 33°44' W 118°16'0 0.5
2014-Oct-16 13:28N 33°44' W 118°16'0 0.0
2014-Oct-16 11:22N 33°44' W 118°16'0 0.0
2014-Oct-16 10:32N 33°44' W 118°16'12 1.8
2014-Oct-16 04:12N 33°35' W 118°08'9 2.4
2014-Oct-16 00:33N 33°42' W 118°14'3 0.3
2014-Oct-15 14:24N 33°44' W 118°16'0 0.2
2014-Oct-15 12:08N 33°44' W 118°16'0 0.0
2014-Oct-15 11:30N 33°44' W 118°16'0 0.0
2014-Oct-15 10:31N 33°44' W 118°16'0 0.0
2014-Oct-15 09:33N 33°44' W 118°16'0 0.0
2014-Oct-15 05:18N 33°44' W 118°16'0 0.0
2014-Oct-15 04:25N 33°44' W 118°16'0 0.0
2014-Oct-15 03:30N 33°44' W 118°16'  

Dump ship's entire track history